Time;durP1;ratioP1;P1;durP2;ratioP2;P2;SDS_P1;SDS_P2;PMS_P1;PMS_P2;Temp;Humidity;BMP_temperature;BMP_pressure;BME280_temperature;BME280_humidity;BME280_pressure;Samples;Min_cycle;Max_cycle;Signal;HPM_P1;HPM_P2
2022/01/13 00:01:41;;;;;;;5.00;2.95;;;;;;;8.22;61.61;102681.47;144993;728;6002;-91
2022/01/13 00:04:12;;;;;;;6.40;3.70;;;;;;;8.05;62.33;102695.78;144993;572;6002;-89
2022/01/13 00:06:41;;;;;;;4.15;3.15;;;;;;;7.88;64.54;102697.19;144992;591;6002;-90
2022/01/13 00:09:09;;;;;;;3.83;3.10;;;;;;;7.93;62.49;102696.72;144992;571;6002;-83
2022/01/13 00:11:38;;;;;;;4.85;3.33;;;;;;;8.11;61.85;102696.22;144993;591;6002;-90
2022/01/13 00:14:25;;;;;;;4.35;3.70;;;;;;;8.21;61.96;102700.38;144993;566;6002;-88
2022/01/13 00:19:57;;;;;;;2.90;2.60;;;;;;;7.89;62.59;102702.47;144993;659;6000;-88
2022/01/13 00:25:21;;;;;;;3.08;2.00;;;;;;;7.22;64.31;102703.53;144992;623;6000;-90
2022/01/13 00:27:54;;;;;;;3.12;1.80;;;;;;;7.32;64.52;102703.47;144992;631;6000;-88
2022/01/13 00:30:21;;;;;;;2.08;1.60;;;;;;;7.22;64.74;102699.31;144992;579;6000;-90
2022/01/13 00:32:54;;;;;;;1.65;1.50;;;;;;;7.10;66.12;102707.81;144991;639;6004;-90
2022/01/13 00:35:27;;;;;;;1.80;1.30;;;;;;;6.83;65.35;102713.56;144992;634;6002;-89
2022/01/13 00:37:57;;;;;;;1.67;1.55;;;;;;;6.80;65.57;102721.06;144993;684;6002;-87
2022/01/13 00:40:24;;;;;;;1.80;1.48;;;;;;;6.97;65.23;102718.84;144993;659;6002;-89
2022/01/13 00:42:53;;;;;;;3.08;1.73;;;;;;;7.02;64.68;102712.38;144993;566;6002;-88
2022/01/13 00:50:25;;;;;;;2.87;1.70;;;;;;;6.80;65.60;102731.37;144993;565;6002;-90
2022/01/13 00:52:51;;;;;;;2.65;1.67;;;;;;;6.97;64.85;102732.69;144993;576;6002;-89
2022/01/13 00:55:30;;;;;;;1.25;1.15;;;;;;;6.83;65.55;102731.63;144993;611;6002;-89
2022/01/13 00:57:57;;;;;;;2.03;1.40;;;;;;;6.79;65.74;102731.25;144993;640;6002;-90
2022/01/13 01:00:25;;;;;;;1.85;1.27;;;;;;;6.58;66.91;102735.66;144993;696;6002;-90
2022/01/13 01:02:52;;;;;;;1.90;1.12;;;;;;;6.97;65.31;102734.34;144993;592;6003;-88
2022/01/13 01:05:25;;;;;;;1.45;1.00;;;;;;;6.60;66.87;102729.84;144993;658;6002;-82
2022/01/13 01:07:52;;;;;;;2.17;1.12;;;;;;;6.70;66.12;102741.78;144993;636;6002;-91
2022/01/13 01:10:20;;;;;;;1.37;1.20;;;;;;;6.66;65.42;102734.59;144993;733;6003;-89
2022/01/13 01:12:47;;;;;;;1.45;1.05;;;;;;;6.08;67.78;102738.63;144993;694;6002;-89
2022/01/13 01:15:15;;;;;;;2.03;1.40;;;;;;;6.54;65.67;102742.28;144993;680;6002;-90
2022/01/13 01:17:47;;;;;;;1.35;1.12;;;;;;;6.15;67.34;102743.47;144993;569;6002;-90
2022/01/13 01:20:14;;;;;;;1.10;0.80;;;;;;;6.32;66.15;102734.53;144993;684;6002;-89
2022/01/13 01:25:42;;;;;;;0.98;0.77;;;;;;;6.03;66.62;102742.50;144993;562;6004;-88
2022/01/13 01:28:15;;;;;;;2.22;0.60;;;;;;;5.97;66.92;102738.66;144993;589;6002;-87
2022/01/13 01:30:45;;;;;;;0.65;0.50;;;;;;;5.68;67.83;102744.00;144993;709;6002;-89
2022/01/13 01:33:16;;;;;;;0.40;0.40;;;;;;;5.74;68.19;102752.22;144994;569;5002;-88
2022/01/13 01:35:42;;;;;;;0.73;0.50;;;;;;;5.69;66.72;102744.87;144994;569;5002;-88
2022/01/13 01:38:09;;;;;;;0.75;0.60;;;;;;;5.85;67.08;102744.47;144994;604;5002;-88
2022/01/13 01:40:36;;;;;;;0.93;0.45;;;;;;;5.55;66.85;102738.59;144994;576;5002;-88
2022/01/13 01:43:03;;;;;;;0.43;0.40;;;;;;;5.37;66.42;102725.97;144994;573;5002;-86
2022/01/13 01:45:33;;;;;;;0.77;0.60;;;;;;;5.53;66.88;102738.47;144994;590;5002;-89
2022/01/13 01:48:03;;;;;;;0.80;0.70;;;;;;;5.77;66.20;102741.25;144994;637;5002;-89
2022/01/13 01:50:35;;;;;;;2.42;0.65;;;;;;;5.85;65.32;102754.75;144993;569;5002;-90
2022/01/13 01:53:04;;;;;;;1.45;0.80;;;;;;;5.75;65.57;102754.00;144994;697;5002;-91
2022/01/13 01:55:31;;;;;;;1.10;0.80;;;;;;;5.35;67.16;102762.72;144994;565;5002;-91
2022/01/13 01:57:57;;;;;;;1.27;0.90;;;;;;;5.85;65.55;102762.50;144994;666;5002;-86
2022/01/13 02:00:27;;;;;;;1.83;1.05;;;;;;;5.73;66.51;102760.72;144994;569;5002;-86
2022/01/13 02:02:55;;;;;;;1.12;0.82;;;;;;;5.68;66.32;102761.09;144994;568;5002;-87
2022/01/13 02:05:23;;;;;;;1.52;1.10;;;;;;;5.66;65.99;102760.97;144993;628;5002;-89
2022/01/13 02:07:50;;;;;;;1.10;1.00;;;;;;;5.44;66.57;102745.41;144994;669;5002;-89
2022/01/13 02:10:22;;;;;;;1.62;0.98;;;;;;;5.50;66.71;102748.50;144994;643;5003;-88
2022/01/13 02:12:52;;;;;;;1.62;1.00;;;;;;;5.70;66.85;102763.03;144994;569;5002;-90
2022/01/13 02:15:37;;;;;;;1.08;0.98;;;;;;;5.80;66.07;102769.84;144994;585;5002;-90
2022/01/13 02:18:06;;;;;;;1.20;1.00;;;;;;;5.86;67.24;102760.03;144994;663;5003;-89
2022/01/13 02:20:52;;;;;;;2.72;1.20;;;;;;;5.92;65.51;102763.13;144994;653;5002;-91
2022/01/13 02:23:36;;;;;;;1.30;1.05;;;;;;;5.81;65.87;102748.47;144994;580;5002;-89
2022/01/13 02:26:04;;;;;;;2.20;1.60;;;;;;;5.92;67.33;102749.34;144994;565;5002;-88
2022/01/13 02:28:31;;;;;;;2.05;1.65;;;;;;;5.99;65.93;102747.41;144994;572;5002;-89
2022/01/13 02:30:58;;;;;;;1.92;1.70;;;;;;;5.62;67.56;102756.38;144994;622;5002;-92
2022/01/13 02:33:38;;;;;;;2.05;1.62;;;;;;;4.99;68.18;102763.97;144994;566;5002;-89
2022/01/13 02:36:08;;;;;;;2.30;1.75;;;;;;;5.13;67.29;102765.16;144994;603;5002;-90
2022/01/13 02:38:36;;;;;;;2.20;1.80;;;;;;;5.13;67.33;102772.87;144994;602;5002;-89
2022/01/13 02:41:04;;;;;;;1.85;1.45;;;;;;;5.26;66.19;102760.25;144994;585;5002;-91
2022/01/13 02:43:33;;;;;;;2.10;1.30;;;;;;;5.01;66.48;102750.47;144994;569;5002;-90
2022/01/13 02:46:28;;;;;;;1.83;1.30;;;;;;;4.93;67.16;102761.75;144994;603;5002;-88
2022/01/13 02:48:55;;;;;;;1.48;1.35;;;;;;;5.20;65.94;102759.72;144994;610;5002;-93
2022/01/13 02:51:23;;;;;;;2.00;1.48;;;;;;;5.20;66.71;102778.69;144994;603;5002;-86
2022/01/13 02:53:52;;;;;;;2.33;1.45;;;;;;;5.02;67.05;102779.69;144994;622;5002;-83
2022/01/13 02:56:23;;;;;;;2.33;1.62;;;;;;;5.65;65.47;102779.81;144994;655;5002;-88
2022/01/13 02:58:52;;;;;;;2.20;1.80;;;;;;;5.42;65.99;102789.13;144994;600;5002;-89
2022/01/13 03:01:24;;;;;;;1.48;1.37;;;;;;;5.22;66.19;102796.84;144994;569;5002;-90
2022/01/13 03:03:54;;;;;;;1.77;1.50;;;;;;;5.13;67.75;102808.91;144994;611;5002;-92
2022/01/13 03:06:35;;;;;;;2.15;1.70;;;;;;;4.99;67.87;102806.03;144993;620;5002;-89
2022/01/13 03:09:27;;;;;;;;;;;;;;;;;;;;;
2022/01/13 03:12:10;;;;;;;3.08;1.92;;;;;;;4.99;69.60;102818.03;144994;628;5004;-89
2022/01/13 03:14:39;;;;;;;2.42;2.20;;;;;;;5.08;68.41;102817.13;144994;645;5004;-89
2022/01/13 03:17:07;;;;;;;2.83;2.22;;;;;;;5.19;68.37;102810.34;144994;683;5004;-88
2022/01/13 03:19:42;;;;;;;2.60;1.95;;;;;;;5.54;67.10;102825.28;144994;617;5004;-81
2022/01/13 03:22:16;;;;;;;3.90;2.70;;;;;;;5.77;66.00;102809.19;144994;569;5004;-86
2022/01/13 03:24:44;;;;;;;3.50;2.50;;;;;;;5.80;65.91;102806.81;144994;574;5004;-82
2022/01/13 03:27:18;;;;;;;3.35;2.47;;;;;;;5.85;66.56;102819.22;144994;562;5004;-88
2022/01/13 03:29:46;;;;;;;3.40;2.40;;;;;;;5.86;66.17;102826.19;144994;578;5004;-92
2022/01/13 03:32:13;;;;;;;4.00;2.80;;;;;;;5.90;65.62;102828.22;144994;574;5004;-90
2022/01/13 03:34:40;;;;;;;3.87;2.70;;;;;;;5.81;66.39;102831.84;144994;605;5004;-85
2022/01/13 03:37:08;;;;;;;3.42;2.60;;;;;;;5.96;66.49;102831.31;144994;591;5004;-91
2022/01/13 03:39:34;;;;;;;4.45;2.80;;;;;;;6.06;66.35;102840.72;144994;639;5005;-94
2022/01/13 03:42:02;;;;;;;4.97;3.40;;;;;;;6.50;63.82;102839.16;144994;668;5004;-92
2022/01/13 03:44:29;;;;;;;4.12;3.37;;;;;;;6.72;63.33;102836.63;144994;610;5004;-90
2022/01/13 03:46:59;;;;;;;3.95;2.87;;;;;;;6.44;64.05;102833.53;144994;579;5005;-91
2022/01/13 03:49:28;;;;;;;3.20;2.70;;;;;;;6.25;65.52;102835.38;144994;591;5004;-91
2022/01/13 03:52:43;;;;;;;5.30;3.17;;;;;;;6.07;66.21;102837.38;144994;661;5004;-92
2022/01/13 03:55:55;;;;;;;5.03;3.28;;;;;;;6.67;63.66;102839.63;144994;588;5004;-90
2022/01/13 03:58:57;;;;;;;4.90;3.15;;;;;;;6.77;63.12;102838.69;144994;562;5004;-91
2022/01/13 04:02:02;;;;;;;4.07;3.03;;;;;;;6.47;64.61;102846.66;144994;572;5004;-91
2022/01/13 04:04:31;;;;;;;5.18;3.65;;;;;;;6.06;65.64;102836.50;144994;635;5002;-89
2022/01/13 04:07:23;;;;;;;3.85;2.97;;;;;;;5.74;66.83;102854.41;144994;605;5002;-91
2022/01/13 04:10:28;;;;;;;3.42;3.00;;;;;;;5.59;67.34;102856.59;144994;595;5002;-89
2022/01/13 04:12:55;;;;;;;4.90;3.33;;;;;;;5.59;67.96;102859.19;144994;582;5002;-90
2022/01/13 04:15:29;;;;;;;6.10;3.25;;;;;;;5.24;69.15;102870.84;144994;657;5002;-89
2022/01/13 04:17:57;;;;;;;5.20;3.60;;;;;;;5.63;67.53;102871.53;144994;677;5002;-91
2022/01/13 04:20:26;;;;;;;4.47;3.22;;;;;;;5.71;67.38;102875.69;144994;612;5002;-92
2022/01/13 04:22:54;;;;;;;4.97;3.67;;;;;;;5.84;66.42;102877.59;144994;585;5002;-91
2022/01/13 04:25:22;;;;;;;4.40;3.30;;;;;;;5.40;68.35;102882.47;144994;606;5002;-91
2022/01/13 04:27:51;;;;;;;4.28;3.10;;;;;;;5.38;68.08;102884.91;144994;619;5002;-92
2022/01/13 04:32:55;;;;;;;4.12;3.22;;;;;;;5.08;68.58;102889.22;144994;591;5004;-91
2022/01/13 04:35:22;;;;;;;3.90;3.30;;;;;;;5.16;68.26;102896.72;144994;599;5004;-90
2022/01/13 04:37:51;;;;;;;4.72;3.72;;;;;;;5.17;68.52;102903.66;144994;588;5004;-79
2022/01/13 04:40:31;;;;;;;4.65;3.55;;;;;;;5.41;67.25;102903.22;144994;568;5004;-86
2022/01/13 04:42:58;;;;;;;4.93;3.47;;;;;;;5.29;66.53;102897.00;144994;584;5004;-91
2022/01/13 04:45:25;;;;;;;6.25;3.53;;;;;;;5.35;67.11;102905.25;144994;585;5004;-89
2022/01/13 04:47:54;;;;;;;4.65;3.80;;;;;;;5.06;67.11;102890.78;144994;623;5004;-91
2022/01/13 04:50:22;;;;;;;7.60;3.90;;;;;;;5.09;68.01;102903.91;144994;602;5004;-89
2022/01/13 04:52:51;;;;;;;6.60;4.68;;;;;;;5.17;68.04;102902.00;144994;577;5004;-92
2022/01/13 04:55:24;;;;;;;5.03;3.80;;;;;;;5.27;67.29;102911.44;144994;636;5004;-90
2022/01/13 04:57:53;;;;;;;6.35;4.62;;;;;;;5.27;67.47;102903.69;144994;575;5004;-90
2022/01/13 05:00:21;;;;;;;6.32;4.43;;;;;;;5.21;67.42;102913.47;144994;587;5004;-91
2022/01/13 05:02:47;;;;;;;6.87;4.57;;;;;;;5.69;65.83;102922.69;144994;566;5004;-89
2022/01/13 05:05:15;;;;;;;6.18;4.50;;;;;;;5.72;65.93;102926.44;144994;565;5004;-92
2022/01/13 05:07:45;;;;;;;7.00;4.40;;;;;;;5.41;66.92;102918.66;144994;587;5004;-89
2022/01/13 05:10:12;;;;;;;5.55;4.37;;;;;;;5.36;67.05;102925.09;144994;587;5004;-90
2022/01/13 05:12:43;;;;;;;5.55;4.30;;;;;;;5.62;66.03;102926.44;144994;563;5004;-90
2022/01/13 05:15:17;;;;;;;7.12;4.10;;;;;;;4.99;67.35;102927.03;144994;568;5004;-89
2022/01/13 05:20:42;;;;;;;9.43;7.00;;;;;;;5.01;67.94;102943.53;144994;670;5002;-89
2022/01/13 05:23:11;;;;;;;7.40;5.78;;;;;;;5.36;66.71;102945.72;144994;661;5002;-88
2022/01/13 05:25:41;;;;;;;7.65;5.00;;;;;;;5.26;66.75;102941.44;144994;592;5002;-89
2022/01/13 05:28:11;;;;;;;6.50;4.62;;;;;;;5.12;66.56;102936.72;144994;623;5002;-93
2022/01/13 05:30:41;;;;;;;6.00;4.80;;;;;;;5.42;65.51;102943.66;144994;593;5002;-92
2022/01/13 05:33:31;;;;;;;7.10;5.28;;;;;;;5.93;64.50;102952.22;144994;676;5002;-85
2022/01/13 05:38:30;;;;;;;7.82;4.90;;;;;;;5.82;63.52;102962.53;144994;621;5002;-88
2022/01/13 05:40:58;;;;;;;6.18;5.10;;;;;;;6.21;63.59;102967.47;144994;571;5002;-90
2022/01/13 05:43:25;;;;;;;6.80;5.15;;;;;;;6.02;63.90;102976.22;144994;629;5002;-91
2022/01/13 05:45:52;;;;;;;10.10;6.60;;;;;;;5.89;63.86;102983.69;144994;569;5002;-91
2022/01/13 05:50:50;;;;;;;12.15;8.68;;;;;;;6.05;63.62;102973.03;144994;600;5002;-88
2022/01/13 05:53:46;;;;;;;10.40;7.28;;;;;;;5.89;63.15;102969.09;144994;564;5002;-81
2022/01/13 05:56:14;;;;;;;10.02;6.95;;;;;;;5.64;63.29;102981.56;144994;614;5004;-91
2022/01/13 06:01:09;;;;;;;9.27;5.97;;;;;;;6.25;62.79;102978.19;144994;576;5003;-91
2022/01/13 06:03:35;;;;;;;9.38;5.87;;;;;;;6.18;61.71;102970.69;144994;648;5002;-92
2022/01/13 06:06:02;;;;;;;8.45;6.07;;;;;;;6.24;62.43;102980.62;144994;575;4566;-89
2022/01/13 06:08:28;;;;;;;9.25;6.05;;;;;;;6.44;61.59;102971.94;144994;630;4573;-89
2022/01/13 06:10:55;;;;;;;9.00;5.97;;;;;;;6.10;62.33;102985.50;144994;619;4580;-91
2022/01/13 06:13:21;;;;;;;10.68;6.40;;;;;;;6.20;62.17;102991.44;144992;553;6002;-83
2022/01/13 06:19:28;;;;;;;;;;;;;;;;;;;;;
2022/01/13 06:28:07;;;;;;;10.48;6.78;;;;;;;5.90;62.12;103000.94;144992;645;6002;-87
2022/01/13 06:30:35;;;;;;;8.30;6.30;;;;;;;5.95;62.39;103002.22;144992;578;6002;-91
2022/01/13 06:33:04;;;;;;;8.40;5.87;;;;;;;6.38;61.90;103002.41;144991;592;6002;-91
2022/01/13 06:35:31;;;;;;;8.30;6.40;;;;;;;6.37;61.57;103021.25;144992;627;6002;-89
2022/01/13 06:37:58;;;;;;;10.25;6.32;;;;;;;6.32;61.55;103015.69;144992;570;6002;-88
2022/01/13 06:40:27;;;;;;;11.75;6.82;;;;;;;6.10;61.36;103016.47;144992;573;6002;-89
2022/01/13 06:42:54;;;;;;;8.48;6.55;;;;;;;6.45;61.25;103013.34;144992;589;6002;-87
2022/01/13 06:45:21;;;;;;;10.57;6.78;;;;;;;6.53;60.91;103022.63;144992;611;6002;-88
2022/01/13 06:47:47;;;;;;;9.95;6.62;;;;;;;6.66;60.47;103023.66;144992;587;6002;-89
2022/01/13 06:50:17;;;;;;;8.57;6.40;;;;;;;6.62;60.81;103019.03;144992;593;6002;-89
2022/01/13 06:52:44;;;;;;;9.32;6.55;;;;;;;6.81;60.01;103026.59;144992;684;6002;-90
2022/01/13 06:55:12;;;;;;;8.65;6.87;;;;;;;7.00;59.46;103023.81;144992;640;6002;-88
2022/01/13 06:57:39;;;;;;;10.20;7.10;;;;;;;6.89;59.89;103035.88;144992;581;6002;-89
2022/01/13 07:00:29;;;;;;;;;;;;;;;;;;;;;
2022/01/13 07:03:03;;;;;;;9.55;6.62;;;;;;;7.22;59.12;103029.97;144992;568;6004;-90
2022/01/13 07:05:31;;;;;;;8.75;5.90;;;;;;;6.49;60.16;103038.66;144992;571;6004;-84
2022/01/13 07:07:58;;;;;;;7.45;5.65;;;;;;;6.41;59.96;103036.19;144992;573;6005;-90
2022/01/13 07:10:25;;;;;;;8.40;5.68;;;;;;;6.23;61.22;103039.03;144992;583;6004;-85
2022/01/13 07:12:51;;;;;;;7.97;6.05;;;;;;;6.15;60.79;103035.78;144992;602;6004;-87
2022/01/13 07:15:18;;;;;;;10.30;5.95;;;;;;;6.20;60.86;103033.59;144992;567;6005;-86
2022/01/13 07:17:46;;;;;;;7.43;5.65;;;;;;;5.41;61.28;103025.97;144992;641;6004;-89
2022/01/13 07:20:13;;;;;;;9.35;5.95;;;;;;;5.63;61.49;103044.19;144992;702;6004;-89
2022/01/13 07:22:40;;;;;;;9.05;6.40;;;;;;;5.39;61.38;103028.41;144992;653;6004;-88
2022/01/13 07:25:08;;;;;;;8.65;6.47;;;;;;;5.04;61.70;103031.34;144992;613;6004;-87
2022/01/13 07:27:35;;;;;;;9.52;6.18;;;;;;;4.90;63.19;103031.78;144992;591;6004;-88
2022/01/13 07:30:01;;;;;;;9.52;6.18;;;;;;;5.19;62.68;103026.63;144992;571;6004;-88
2022/01/13 07:32:28;;;;;;;8.35;5.93;;;;;;;4.81;62.52;103038.66;144992;589;6004;-87
2022/01/13 07:34:55;;;;;;;8.73;6.22;;;;;;;4.93;62.99;103037.16;144992;561;6004;-89
2022/01/13 07:37:24;;;;;;;9.77;6.05;;;;;;;4.82;62.88;103035.31;144992;597;6004;-90
2022/01/13 07:39:51;;;;;;;9.13;6.45;;;;;;;4.72;63.56;103042.22;144992;577;6004;-89
2022/01/13 07:42:19;;;;;;;8.13;5.75;;;;;;;4.53;63.47;103043.87;144992;629;6004;-90
2022/01/13 07:44:47;;;;;;;7.53;5.90;;;;;;;4.38;64.00;103043.37;144992;611;6004;-83
2022/01/13 07:47:16;;;;;;;8.50;6.18;;;;;;;4.67;63.83;103042.56;144992;579;6004;-90
2022/01/13 07:49:43;;;;;;;9.73;6.75;;;;;;;4.71;63.67;103042.97;144992;610;6004;-89
2022/01/13 07:52:10;;;;;;;8.52;6.37;;;;;;;4.90;63.19;103052.38;144992;597;6004;-94
2022/01/13 07:54:38;;;;;;;10.38;7.03;;;;;;;4.90;63.37;103054.94;144991;599;6000;-89
2022/01/13 07:57:05;;;;;;;8.95;5.82;;;;;;;4.57;63.58;103061.41;144992;569;6002;-88
2022/01/13 07:59:31;;;;;;;8.82;5.97;;;;;;;4.50;63.87;103054.81;144992;566;6002;-85
2022/01/13 08:01:59;;;;;;;8.65;6.50;;;;;;;4.84;62.63;103065.56;144992;564;6002;-89
2022/01/13 08:06:55;;;;;;;9.02;6.10;;;;;;;4.57;63.49;103061.41;144992;576;6002;-90
2022/01/13 08:09:21;;;;;;;7.70;5.45;;;;;;;4.38;63.71;103073.34;144992;587;6002;-89
2022/01/13 08:12:06;;;;;;;8.07;6.18;;;;;;;4.58;63.73;103077.72;144992;607;6002;-86
2022/01/13 08:14:34;;;;;;;8.32;6.20;;;;;;;4.53;63.93;103074.72;144992;593;6002;-91
2022/01/13 08:17:02;;;;;;;10.27;6.43;;;;;;;4.56;63.06;103080.16;144992;583;6002;-91
2022/01/13 08:19:45;;;;;;;8.30;6.00;;;;;;;4.49;63.29;103072.66;144992;598;6002;-90
2022/01/13 08:22:17;;;;;;;8.35;6.15;;;;;;;4.48;62.43;103071.72;144992;648;6002;-87
2022/01/13 08:24:48;;;;;;;9.25;6.22;;;;;;;4.32;62.65;103074.56;144992;579;6002;-86
2022/01/13 08:29:47;;;;;;;7.57;5.85;;;;;;;4.17;62.79;103089.47;144992;570;6002;-92
2022/01/13 08:32:16;;;;;;;8.60;6.00;;;;;;;4.32;63.04;103094.22;144992;583;6002;-86
2022/01/13 08:34:43;;;;;;;6.75;5.47;;;;;;;4.34;63.46;103098.78;144992;614;6002;-91
2022/01/13 08:37:17;;;;;;;8.07;5.70;;;;;;;4.42;62.50;103102.03;144992;630;6002;-87
2022/01/13 08:39:47;;;;;;;9.43;6.12;;;;;;;4.14;63.00;103108.84;144991;616;6002;-87
2022/01/13 08:42:15;;;;;;;9.05;6.03;;;;;;;4.31;62.02;103108.78;144992;567;6002;-90
2022/01/13 08:44:43;;;;;;;9.15;6.68;;;;;;;4.30;62.24;103111.19;144992;563;6002;-89
2022/01/13 08:47:12;;;;;;;9.10;6.03;;;;;;;4.37;62.08;103113.56;144992;559;6002;-91
2022/01/13 08:49:42;;;;;;;11.57;6.47;;;;;;;4.31;62.12;103113.91;144992;616;6002;-89
2022/01/13 08:52:13;;;;;;;8.00;6.43;;;;;;;4.20;61.78;103122.28;144992;595;6002;-88
2022/01/13 08:54:45;;;;;;;10.07;6.50;;;;;;;4.35;61.97;103121.13;144992;593;6002;-90
2022/01/13 08:57:17;;;;;;;8.65;6.37;;;;;;;4.40;61.62;103133.53;144991;576;6002;-90
2022/01/13 08:59:52;;;;;;;8.45;6.37;;;;;;;4.35;62.00;103141.72;144992;598;6002;-90
2022/01/13 09:02:24;;;;;;;9.07;6.43;;;;;;;4.10;62.24;103137.59;144992;628;6002;-91
2022/01/13 09:04:51;;;;;;;8.88;6.32;;;;;;;4.06;62.87;103136.41;144992;602;6002;-92
2022/01/13 09:07:18;;;;;;;10.40;6.55;;;;;;;4.32;62.77;103144.00;144991;575;6002;-90
2022/01/13 09:09:45;;;;;;;11.30;7.20;;;;;;;4.00;62.87;103139.28;144992;579;6002;-91
2022/01/13 09:12:13;;;;;;;8.45;6.28;;;;;;;4.03;63.09;103151.53;144992;576;6002;-90
2022/01/13 09:14:43;;;;;;;9.40;6.28;;;;;;;3.87;63.14;103159.44;144992;569;6002;-91
2022/01/13 09:17:20;;;;;;;9.57;7.00;;;;;;;4.39;62.89;103163.50;144992;566;6002;-92
2022/01/13 09:19:46;;;;;;;10.25;7.60;;;;;;;4.64;62.09;103160.62;144992;594;6002;-91
2022/01/13 09:22:20;;;;;;;10.32;7.22;;;;;;;4.40;62.80;103161.81;144992;615;6003;-84
2022/01/13 09:24:53;;;;;;;10.80;7.15;;;;;;;4.84;61.16;103160.81;144992;587;6002;-83
2022/01/13 09:27:50;;;;;;;10.10;6.80;;;;;;;4.91;61.49;103164.84;144992;626;6002;-86
2022/01/13 09:31:04;;;;;;;9.38;6.70;;;;;;;4.99;60.13;103165.56;144992;617;6002;-81
2022/01/13 09:33:38;;;;;;;10.68;6.82;;;;;;;5.00;59.66;103160.53;144992;563;6002;-86
2022/01/13 09:36:08;;;;;;;8.45;6.40;;;;;;;5.16;60.40;103165.41;144991;589;6002;-90
2022/01/13 09:38:46;;;;;;;8.65;6.37;;;;;;;5.17;60.29;103163.75;144992;665;6002;-91
2022/01/13 09:41:14;;;;;;;12.23;7.72;;;;;;;5.01;60.97;103174.31;144992;571;6002;-96
2022/01/13 09:44:00;;;;;;;10.10;6.87;;;;;;;5.04;60.51;103172.94;144992;610;6002;-86
2022/01/13 09:47:23;;;;;;;;;;;;;;;;;;;;;
2022/01/13 09:50:07;;;;;;;9.88;6.87;;;;;;;4.80;61.08;103163.84;144992;581;6004;-84
2022/01/13 09:52:49;;;;;;;9.43;7.37;;;;;;;4.99;61.01;103173.28;144992;604;6004;-90
2022/01/13 09:55:41;;;;;;;10.05;6.60;;;;;;;5.02;61.18;103159.00;144992;620;6004;-90
2022/01/13 09:58:48;;;;;;;10.80;7.60;;;;;;;4.97;60.82;103172.25;144992;582;6002;-86
2022/01/13 10:01:34;;;;;;;10.90;6.90;;;;;;;5.15;61.12;103167.84;144992;567;6004;-87
2022/01/13 10:04:03;;;;;;;10.82;7.53;;;;;;;5.43;60.10;103153.22;144991;627;6000;-92
2022/01/13 10:09:11;;;;;;;12.25;8.07;;;;;;;5.51;60.45;103159.06;144992;639;6002;-79
2022/01/13 10:11:52;;;;;;;14.48;9.82;;;;;;;5.51;60.68;103153.91;144992;581;6002;-81
2022/01/13 10:17:16;;;;;;;11.93;7.80;;;;;;;5.11;61.07;103148.66;144992;574;6004;-80
2022/01/13 10:19:55;;;;;;;12.88;8.45;;;;;;;5.04;60.73;103133.41;144992;565;6004;-79
2022/01/13 10:22:31;;;;;;;10.13;7.20;;;;;;;4.88;62.55;103149.13;144992;591;6004;-80
2022/01/13 10:24:58;;;;;;;9.88;7.53;;;;;;;5.02;61.35;103140.97;144992;583;6004;-80
2022/01/13 10:27:43;;;;;;;8.07;6.72;;;;;;;4.93;61.50;103136.66;144992;595;6004;-81
2022/01/13 10:30:17;;;;;;;10.90;7.10;;;;;;;4.97;61.21;103147.38;144992;591;6002;-79
2022/01/13 10:32:45;;;;;;;9.85;7.28;;;;;;;4.98;61.52;103153.44;144992;579;6002;-79
2022/01/13 10:35:18;;;;;;;9.30;6.95;;;;;;;5.08;61.09;103148.37;144992;572;6002;-79
2022/01/13 10:37:47;;;;;;;13.00;8.27;;;;;;;5.43;60.14;103145.50;144992;565;6002;-80
2022/01/13 10:40:21;;;;;;;11.77;7.93;;;;;;;5.67;59.36;103144.19;144992;576;6002;-79
2022/01/13 10:45:51;;;;;;;8.70;6.53;;;;;;;5.59;59.09;103130.63;144992;567;6004;-80
2022/01/13 10:48:27;;;;;;;10.25;6.95;;;;;;;5.31;59.37;103132.41;144992;572;6004;-79
2022/01/13 10:50:58;;;;;;;11.65;8.63;;;;;;;5.53;59.68;103129.19;144992;570;6004;-78
2022/01/13 10:53:30;;;;;;;13.32;9.20;;;;;;;5.53;59.87;103124.03;144992;612;6004;-80
2022/01/13 10:56:00;;;;;;;10.45;8.00;;;;;;;5.64;59.57;103120.72;144992;567;6004;-79
2022/01/13 10:58:34;;;;;;;9.77;7.80;;;;;;;5.64;59.60;103119.03;144992;570;6004;-79
2022/01/13 11:01:03;;;;;;;9.85;7.43;;;;;;;5.77;58.95;103109.81;144992;605;6004;-80
2022/01/13 11:03:33;;;;;;;9.38;6.68;;;;;;;5.40;58.25;103106.59;144991;617;6000;-79
2022/01/13 11:06:08;;;;;;;9.32;7.85;;;;;;;5.67;59.16;103108.13;144992;599;6002;-79
2022/01/13 11:08:41;;;;;;;11.68;9.43;;;;;;;5.87;58.67;103112.44;144992;591;6002;-79
2022/01/13 11:11:20;;;;;;;11.98;9.15;;;;;;;5.82;58.85;103101.72;144992;583;6002;-79
2022/01/13 11:14:06;;;;;;;11.60;9.35;;;;;;;5.90;58.43;103094.66;144992;626;6002;-78
2022/01/13 11:16:36;;;;;;;10.65;8.02;;;;;;;5.85;58.57;103089.88;144992;616;6002;-82
2022/01/13 11:19:05;;;;;;;10.30;7.30;;;;;;;5.63;57.76;103083.75;144992;617;6002;-80
2022/01/13 11:21:33;;;;;;;8.98;6.85;;;;;;;5.45;58.59;103071.81;144992;589;6002;-80
2022/01/13 11:24:00;;;;;;;12.27;7.57;;;;;;;5.27;56.73;103073.69;144992;571;6002;-81
2022/01/13 11:26:27;;;;;;;9.68;7.65;;;;;;;5.40;58.09;103068.84;144992;569;6002;-80
2022/01/13 11:28:55;;;;;;;10.82;7.70;;;;;;;5.26;58.34;103071.84;144992;621;6002;-80
2022/01/13 11:31:25;;;;;;;10.13;7.55;;;;;;;5.43;58.31;103066.53;144992;585;6002;-80
2022/01/13 11:33:51;;;;;;;9.85;7.53;;;;;;;5.50;58.56;103064.50;144992;573;6002;-79
2022/01/13 11:36:19;;;;;;;10.18;8.20;;;;;;;5.36;57.92;103069.34;144992;578;6003;-78
2022/01/13 11:39:08;;;;;;;12.48;8.48;;;;;;;5.19;58.42;103074.69;144992;661;6002;-81
2022/01/13 11:41:55;;;;;;;11.00;8.02;;;;;;;4.98;58.62;103059.09;144992;623;6002;-81
2022/01/13 11:44:22;;;;;;;12.43;8.93;;;;;;;5.02;58.65;103065.44;144992;575;6005;-80
2022/01/13 11:46:50;;;;;;;12.35;9.20;;;;;;;4.94;58.28;103069.88;144992;596;6004;-79
2022/01/13 11:52:16;;;;;;;12.52;9.18;;;;;;;4.90;57.11;103063.56;144992;615;6004;-79
2022/01/13 11:54:43;;;;;;;13.25;9.77;;;;;;;5.07;58.55;103065.09;144992;593;6004;-80
2022/01/13 11:57:27;;;;;;;10.73;8.48;;;;;;;4.85;57.89;103062.25;144992;629;6004;-79
2022/01/13 12:00:28;;;;;;;10.40;8.30;;;;;;;4.97;57.83;103066.69;144992;610;6004;-80
2022/01/13 12:02:56;;;;;;;10.20;8.40;;;;;;;4.99;57.99;103062.56;144992;565;6002;-79
2022/01/13 12:05:49;;;;;;;11.40;8.30;;;;;;;4.92;58.29;103061.13;144992;569;6002;-80
2022/01/13 12:08:51;;;;;;;10.80;8.05;;;;;;;5.02;58.38;103060.28;144992;628;6004;-79
2022/01/13 12:11:38;;;;;;;10.43;7.85;;;;;;;5.15;57.20;103059.72;144992;612;6002;-83
2022/01/13 12:14:43;;;;;;;9.67;6.93;;;;;;;5.05;57.27;103052.84;144992;664;6002;-79
2022/01/13 12:17:30;;;;;;;10.73;7.60;;;;;;;4.88;58.04;103053.87;144992;601;6004;-80
2022/01/13 12:20:03;;;;;;;9.90;7.30;;;;;;;4.59;57.45;103057.28;144992;591;6002;-81
2022/01/13 12:22:51;;;;;;;11.02;7.68;;;;;;;4.60;58.51;103053.97;144992;591;6002;-80
2022/01/13 12:25:20;;;;;;;10.20;7.90;;;;;;;4.67;57.54;103058.88;144992;592;6002;-80
2022/01/13 12:27:51;;;;;;;10.70;7.80;;;;;;;4.56;58.38;103057.00;144993;577;6002;-78
2022/01/13 12:30:28;;;;;;;10.50;8.10;;;;;;;4.68;58.25;103057.25;144993;583;6002;-80
2022/01/13 12:33:00;;;;;;;9.35;6.87;;;;;;;4.35;58.19;103059.41;144993;597;6002;-80
2022/01/13 12:35:58;;;;;;;9.77;7.03;;;;;;;4.41;58.71;103050.47;144993;578;6002;-80
2022/01/13 12:38:27;;;;;;;9.38;7.20;;;;;;;4.51;58.84;103058.25;144993;644;6000;-80
2022/01/13 12:41:13;;;;;;;10.32;7.37;;;;;;;4.47;58.40;103041.66;144993;590;6002;-81
2022/01/13 12:46:26;;;;;;;9.15;7.07;;;;;;;5.13;57.20;103036.37;144993;652;6000;-79
2022/01/13 12:48:54;;;;;;;10.50;7.50;;;;;;;5.23;56.96;103027.81;144993;595;6002;-85
2022/01/13 12:51:26;;;;;;;8.10;6.43;;;;;;;5.50;55.81;103021.59;144993;574;6002;-88
2022/01/13 12:53:54;;;;;;;11.55;7.00;;;;;;;5.70;55.79;103025.03;144993;594;6002;-80
2022/01/13 12:56:24;;;;;;;10.20;7.47;;;;;;;5.96;55.65;103024.66;144993;602;6002;-86
2022/01/13 12:59:02;;;;;;;8.95;6.97;;;;;;;5.98;55.05;103028.31;144992;587;6002;-80
2022/01/13 13:01:33;;;;;;;9.88;6.78;;;;;;;6.32;55.04;103013.13;144992;574;6002;-80
2022/01/13 13:04:11;;;;;;;12.80;7.90;;;;;;;6.48;55.24;103013.63;144992;641;6002;-82
2022/01/13 13:06:45;;;;;;;10.80;7.72;;;;;;;6.47;55.13;103011.78;144992;554;6002;-81